createdAt,value
2016-12-18T09:54:17.375Z,1018.14
2016-12-18T09:55:17.384Z,1018.16
2016-12-18T09:56:17.391Z,1018.16
2016-12-18T09:57:17.402Z,1018.16
2016-12-18T09:58:17.416Z,1018.2
2016-12-18T09:59:17.429Z,1018.23
2016-12-18T10:00:17.442Z,1018.21
2016-12-18T10:01:17.456Z,1018.21
2016-12-18T10:02:17.473Z,1018.17
2016-12-18T10:03:17.488Z,1018.16
2016-12-18T10:04:17.502Z,1018.15
2016-12-18T10:05:17.522Z,1018.21
2016-12-18T10:06:17.536Z,1018.19
2016-12-18T10:07:17.549Z,1018.24
2016-12-18T10:08:17.567Z,1018.24
2016-12-18T10:09:17.584Z,1018.22
2016-12-18T10:10:17.601Z,1018.19
2016-12-18T10:11:17.661Z,1018.25
2016-12-18T10:12:17.641Z,1018.18
2016-12-18T10:13:17.695Z,1018.2
2016-12-18T10:14:17.704Z,1018.17
2016-12-18T10:15:17.736Z,1018.12
2016-12-18T10:16:17.757Z,1018.13
2016-12-18T10:17:17.768Z,1018.16
2016-12-18T10:18:17.767Z,1018.17
2016-12-18T10:19:17.770Z,1018.19
2016-12-18T10:20:17.780Z,1018.15
2016-12-18T10:21:17.798Z,1018.21
2016-12-18T10:22:17.811Z,1018.15
2016-12-18T10:23:17.835Z,1018.15
2016-12-18T10:24:17.849Z,1018.16
2016-12-18T10:25:17.870Z,1018.14
2016-12-18T10:26:17.889Z,1018.18
2016-12-18T10:27:17.907Z,1018.19
2016-12-18T10:28:17.925Z,1018.17
2016-12-18T10:29:17.944Z,1018.19
2016-12-18T10:30:17.961Z,1018.21
2016-12-18T10:31:17.982Z,1018.15
2016-12-18T10:32:18.000Z,1018.11
2016-12-18T10:33:18.017Z,1018.02
2016-12-18T10:34:18.034Z,1018.02
2016-12-18T10:35:18.054Z,1018.01
2016-12-18T10:36:18.073Z,1017.98
2016-12-18T10:37:18.093Z,1017.99
2016-12-18T10:38:18.111Z,1018.03
2016-12-18T10:39:18.134Z,1017.97
2016-12-18T10:40:18.281Z,1017.95
2016-12-18T10:41:18.167Z,1017.96
2016-12-18T10:42:18.185Z,1017.97
2016-12-18T10:43:18.210Z,1017.89
2016-12-18T10:44:18.228Z,1017.86
2016-12-18T10:45:18.247Z,1017.83
2016-12-18T10:46:18.855Z,1017.77
2016-12-18T10:47:18.282Z,1017.76
2016-12-18T10:48:18.305Z,1017.67
2016-12-18T10:49:18.323Z,1017.74
2016-12-18T10:50:18.345Z,1017.67
2016-12-18T10:51:18.361Z,1017.63
2016-12-18T10:52:18.381Z,1017.66
2016-12-18T10:53:18.401Z,1017.69
2016-12-18T10:54:18.418Z,1017.67
2016-12-18T10:55:18.440Z,1017.68
2016-12-18T10:56:18.456Z,1017.65
2016-12-18T10:57:18.474Z,1017.58
2016-12-18T10:58:18.499Z,1017.58
2016-12-18T10:59:18.513Z,1017.57
2016-12-18T11:00:18.534Z,1017.52
2016-12-18T11:01:18.549Z,1017.5
2016-12-18T11:02:18.570Z,1017.49
2016-12-18T11:03:18.587Z,1017.49
2016-12-18T11:04:18.610Z,1017.5
2016-12-18T11:05:18.628Z,1017.48
2016-12-18T11:06:18.646Z,1017.5
2016-12-18T11:07:18.669Z,1017.47
2016-12-18T11:08:18.685Z,1017.5
2016-12-18T11:09:18.707Z,1017.49
2016-12-18T11:10:18.724Z,1017.47
2016-12-18T11:11:18.742Z,1017.47
2016-12-18T11:12:18.762Z,1017.52
2016-12-18T11:13:18.780Z,1017.54
2016-12-18T11:14:18.799Z,1017.55
2016-12-18T11:15:18.820Z,1017.58
2016-12-18T11:16:18.837Z,1017.6
2016-12-18T11:17:18.857Z,1017.56
2016-12-18T11:18:18.877Z,1017.52
2016-12-18T11:19:18.893Z,1017.48
2016-12-18T11:20:18.913Z,1017.5
2016-12-18T11:21:18.930Z,1017.51
2016-12-18T11:22:18.952Z,1017.54
2016-12-18T11:23:18.973Z,1017.57
2016-12-18T11:24:18.989Z,1017.58
2016-12-18T11:25:19.010Z,1017.62
2016-12-18T11:26:19.026Z,1017.58
2016-12-18T11:27:19.050Z,1017.58
2016-12-18T11:28:19.261Z,1017.58
2016-12-18T11:29:19.086Z,1017.48
2016-12-18T11:30:19.107Z,1017.48
2016-12-18T11:31:19.128Z,1017.45
2016-12-18T11:32:19.147Z,1017.43
2016-12-18T11:33:19.376Z,1017.39
2016-12-18T11:34:19.280Z,1017.41
2016-12-18T11:35:19.205Z,1017.38
2016-12-18T11:36:19.222Z,1017.35
2016-12-18T11:37:19.243Z,1017.36
2016-12-18T11:38:19.257Z,1017.31
2016-12-18T11:39:19.276Z,1017.29
2016-12-18T11:40:19.299Z,1017.33
2016-12-18T11:41:19.316Z,1017.3
2016-12-18T11:42:19.545Z,1017.29
2016-12-18T11:43:19.353Z,1017.26
2016-12-18T11:44:19.376Z,1017.28
2016-12-18T11:45:19.395Z,1017.26
2016-12-18T11:46:19.792Z,1017.26
2016-12-18T11:47:19.431Z,1017.31
2016-12-18T11:48:19.453Z,1017.28
2016-12-18T11:49:19.473Z,1017.21
2016-12-18T11:50:19.489Z,1017.25
2016-12-18T11:51:19.509Z,1017.19
2016-12-18T11:52:19.529Z,1017.19
2016-12-18T11:53:19.552Z,1017.15
2016-12-18T11:54:19.568Z,1017.13
2016-12-18T11:55:19.588Z,1017.12
2016-12-18T11:56:19.606Z,1017.14
2016-12-18T11:57:19.626Z,1017.12
2016-12-18T11:58:19.645Z,1017.15
2016-12-18T11:59:19.668Z,1017.11
2016-12-18T12:00:19.688Z,1017.05
2016-12-18T12:01:19.704Z,1017.05
2016-12-18T12:02:19.725Z,1017.06
2016-12-18T12:03:19.743Z,1017.05
2016-12-18T12:04:19.763Z,1017.04
2016-12-18T12:05:20.543Z,1017
2016-12-18T12:06:19.806Z,1017.08
2016-12-18T12:07:19.819Z,1017.11
2016-12-18T12:08:19.842Z,1017.1
2016-12-18T12:09:19.859Z,1017.11
2016-12-18T12:10:19.878Z,1017.14
2016-12-18T12:11:19.901Z,1017.18
2016-12-18T12:12:19.916Z,1017.15
2016-12-18T12:13:19.937Z,1017.17
2016-12-18T12:14:19.958Z,1017.08
2016-12-18T12:15:19.977Z,1017.09
2016-12-18T12:16:19.998Z,1017.07
2016-12-18T12:17:20.015Z,1017.04
2016-12-18T12:18:20.047Z,1017.07
2016-12-18T12:19:20.054Z,1016.99
2016-12-18T12:20:20.074Z,1016.99
2016-12-18T12:21:20.102Z,1016.98
2016-12-18T12:22:20.111Z,1016.93
2016-12-18T12:23:20.130Z,1016.91
2016-12-18T12:24:20.150Z,1016.94
2016-12-18T12:25:20.167Z,1016.86
2016-12-18T12:26:20.191Z,1016.85
2016-12-18T12:27:20.206Z,1016.83
2016-12-18T12:28:20.310Z,1016.84
2016-12-18T12:29:20.247Z,1016.81
2016-12-18T12:30:20.268Z,1016.8
2016-12-18T12:31:20.284Z,1016.79
2016-12-18T12:32:20.731Z,1016.8
2016-12-18T12:33:20.324Z,1016.81
2016-12-18T12:34:20.343Z,1016.74
2016-12-18T12:35:20.364Z,1016.78
2016-12-18T12:36:20.385Z,1016.75
2016-12-18T12:37:20.404Z,1016.72
2016-12-18T12:38:20.423Z,1016.74
2016-12-18T12:39:20.441Z,1016.76
2016-12-18T12:40:20.460Z,1016.78
2016-12-18T12:41:20.481Z,1016.75
2016-12-18T12:42:20.500Z,1016.71
2016-12-18T12:43:20.515Z,1016.7
2016-12-18T12:44:20.536Z,1016.74
2016-12-18T12:45:20.553Z,1016.75
2016-12-18T12:46:20.577Z,1016.77
2016-12-18T12:47:20.594Z,1016.78
2016-12-18T12:48:20.615Z,1016.73
2016-12-18T12:49:20.634Z,1016.72
2016-12-18T12:50:20.651Z,1016.77
2016-12-18T12:51:20.673Z,1016.75
2016-12-18T12:52:20.688Z,1016.8
2016-12-18T12:53:20.708Z,1016.71
2016-12-18T12:54:20.733Z,1016.74
2016-12-18T12:55:20.921Z,1016.76
2016-12-18T12:56:20.769Z,1016.72
2016-12-18T12:57:20.785Z,1016.71
2016-12-18T12:58:20.808Z,1016.69
2016-12-18T12:59:20.824Z,1016.71
2016-12-18T13:00:20.846Z,1016.69
2016-12-18T13:01:21.038Z,1016.69
2016-12-18T13:02:20.882Z,1016.66
2016-12-18T13:03:20.903Z,1016.7
2016-12-18T13:04:20.925Z,1016.69
2016-12-18T13:05:20.939Z,1016.68
2016-12-18T13:06:20.961Z,1016.67
2016-12-18T13:07:20.981Z,1016.66
2016-12-18T13:08:20.999Z,1016.69
2016-12-18T13:09:21.097Z,1016.65
2016-12-18T13:10:21.147Z,1016.62
2016-12-18T13:11:21.061Z,1016.63
2016-12-18T13:12:21.081Z,1016.62
2016-12-18T13:13:21.101Z,1016.66
2016-12-18T13:14:21.119Z,1016.62
2016-12-18T13:15:21.136Z,1016.66
2016-12-18T13:16:21.154Z,1016.62
2016-12-18T13:17:21.174Z,1016.6
2016-12-18T13:18:21.196Z,1016.61
2016-12-18T13:19:21.213Z,1016.6
2016-12-18T13:20:21.235Z,1016.57
2016-12-18T13:21:21.348Z,1016.56
2016-12-18T13:22:21.273Z,1016.54
2016-12-18T13:23:21.294Z,1016.58
2016-12-18T13:24:21.308Z,1016.54
2016-12-18T13:25:21.331Z,1016.57
2016-12-18T13:26:21.350Z,1016.64
2016-12-18T13:27:21.370Z,1016.63
2016-12-18T13:28:21.388Z,1016.61
2016-12-18T13:29:21.408Z,1016.6
2016-12-18T13:30:21.426Z,1016.65
2016-12-18T13:31:21.449Z,1016.64
2016-12-18T13:32:21.474Z,1016.65
2016-12-18T13:33:21.487Z,1016.6
2016-12-18T13:34:21.508Z,1016.59
2016-12-18T13:35:21.521Z,1016.58
2016-12-18T13:36:21.545Z,1016.57
2016-12-18T13:37:21.563Z,1016.57
2016-12-18T13:38:21.580Z,1016.57
2016-12-18T13:39:21.599Z,1016.6
2016-12-18T13:40:21.623Z,1016.57
2016-12-18T13:41:21.638Z,1016.6
2016-12-18T13:42:21.660Z,1016.6
2016-12-18T13:43:21.679Z,1016.64
2016-12-18T13:44:21.698Z,1016.67
2016-12-18T13:45:21.717Z,1016.69
2016-12-18T13:46:21.738Z,1016.7
2016-12-18T13:47:21.751Z,1016.68
2016-12-18T13:48:21.775Z,1016.7
2016-12-18T13:49:21.792Z,1016.59
2016-12-18T13:50:21.813Z,1016.62
2016-12-18T13:51:21.830Z,1016.56
2016-12-18T13:52:21.846Z,1016.56
2016-12-18T13:53:21.865Z,1016.55
2016-12-18T13:54:21.884Z,1016.52
2016-12-18T13:55:21.904Z,1016.53
2016-12-18T13:56:21.916Z,1016.51
2016-12-18T13:57:21.935Z,1016.53
2016-12-18T13:58:21.953Z,1016.41
2016-12-18T13:59:21.970Z,1016.44
2016-12-18T14:00:21.990Z,1016.4
2016-12-18T14:01:22.008Z,1016.41
2016-12-18T14:02:22.028Z,1016.44
2016-12-18T14:03:22.041Z,1016.46
2016-12-18T14:04:22.060Z,1016.48
2016-12-18T14:05:22.079Z,1016.39
2016-12-18T14:06:22.096Z,1016.42
2016-12-18T14:07:22.113Z,1016.41
2016-12-18T14:08:22.131Z,1016.4
2016-12-18T14:09:22.150Z,1016.4
2016-12-18T14:10:22.169Z,1016.38
2016-12-18T14:11:22.182Z,1016.35
2016-12-18T14:12:22.202Z,1016.36
2016-12-18T14:13:22.217Z,1016.33
2016-12-18T14:14:22.235Z,1016.38
2016-12-18T14:15:22.254Z,1016.41
2016-12-18T14:16:22.270Z,1016.36
2016-12-18T14:17:22.298Z,1016.3
2016-12-18T14:18:22.303Z,1016.31
2016-12-18T14:19:22.323Z,1016.33
2016-12-18T14:20:22.339Z,1016.32
2016-12-18T14:21:22.352Z,1016.31
2016-12-18T14:22:22.372Z,1016.35
2016-12-18T14:23:22.388Z,1016.32
2016-12-18T14:24:22.405Z,1016.31
2016-12-18T14:25:22.422Z,1016.3
2016-12-18T14:26:22.439Z,1016.27
2016-12-18T14:27:22.457Z,1016.28
2016-12-18T14:28:22.473Z,1016.22
2016-12-18T14:29:22.489Z,1016.17
2016-12-18T14:30:22.507Z,1016.15
2016-12-18T14:31:22.520Z,1016.19
2016-12-18T14:32:22.539Z,1016.19
2016-12-18T14:33:22.558Z,1016.23
2016-12-18T14:34:22.573Z,1016.2
2016-12-18T14:35:22.589Z,1016.24
2016-12-18T14:36:22.608Z,1016.23
2016-12-18T14:37:22.620Z,1016.21
2016-12-18T14:38:22.641Z,1016.21
2016-12-18T14:39:22.657Z,1016.2
2016-12-18T14:40:22.674Z,1016.16
2016-12-18T14:41:22.689Z,1016.17
2016-12-18T14:42:22.708Z,1016.08
2016-12-18T14:43:22.721Z,1016.11
2016-12-18T14:44:22.738Z,1016.11
2016-12-18T14:45:22.758Z,1016.13
2016-12-18T14:46:22.770Z,1016.15
2016-12-18T14:47:22.788Z,1016.1
2016-12-18T14:48:22.805Z,1016.1
2016-12-18T14:49:22.823Z,1016.13
2016-12-18T14:50:22.839Z,1016.11
2016-12-18T14:51:22.852Z,1016.1
2016-12-18T14:52:22.867Z,1016.03
2016-12-18T14:53:22.887Z,1016.04
2016-12-18T14:54:22.902Z,1016.03
2016-12-18T14:55:22.920Z,1016.01
2016-12-18T14:56:22.934Z,1015.96
2016-12-18T14:57:22.954Z,1015.96
2016-12-18T14:58:22.967Z,1015.93
2016-12-18T14:59:22.985Z,1015.94
2016-12-18T15:00:22.997Z,1015.94
2016-12-18T15:01:23.016Z,1015.95
2016-12-18T15:02:23.035Z,1015.93
2016-12-18T15:03:23.048Z,1015.96
2016-12-18T15:04:23.065Z,1015.99
2016-12-18T15:05:23.081Z,1015.96
2016-12-18T15:06:23.098Z,1015.98
2016-12-18T15:07:23.115Z,1015.98
2016-12-18T15:08:23.130Z,1015.95
2016-12-18T15:09:23.146Z,1015.94
2016-12-18T15:10:23.165Z,1015.95
2016-12-18T15:11:23.176Z,1015.89
2016-12-18T15:12:23.194Z,1015.91
2016-12-18T15:13:23.212Z,1015.89
2016-12-18T15:14:23.230Z,1015.89
2016-12-18T15:15:23.244Z,1015.9
2016-12-18T15:16:23.261Z,1015.84
2016-12-18T15:17:23.278Z,1015.83
2016-12-18T15:18:23.293Z,1015.87
2016-12-18T15:19:23.311Z,1015.86
2016-12-18T15:20:23.327Z,1015.83
2016-12-18T15:21:23.341Z,1015.83
2016-12-18T15:22:23.357Z,1015.84
2016-12-18T15:23:23.374Z,1015.85
2016-12-18T15:24:23.387Z,1015.79
2016-12-18T15:25:23.405Z,1015.76
2016-12-18T15:26:23.423Z,1015.78
2016-12-18T15:27:23.442Z,1015.84
2016-12-18T15:28:23.455Z,1015.86
2016-12-18T15:29:23.474Z,1015.8
2016-12-18T15:30:23.488Z,1015.78
2016-12-18T15:31:23.506Z,1015.73
2016-12-18T15:32:23.522Z,1015.72
2016-12-18T15:33:23.532Z,1015.74
2016-12-18T15:34:23.553Z,1015.75
2016-12-18T15:35:23.566Z,1015.79
2016-12-18T15:36:23.583Z,1015.83
2016-12-18T15:37:23.597Z,1015.85
2016-12-18T15:38:23.613Z,1015.87
2016-12-18T15:39:23.633Z,1015.88
2016-12-18T15:40:23.647Z,1015.81
2016-12-18T15:41:23.664Z,1015.78
2016-12-18T15:42:23.681Z,1015.72
2016-12-18T15:43:23.697Z,1015.73
2016-12-18T15:44:23.710Z,1015.72
2016-12-18T15:45:23.730Z,1015.71
2016-12-18T15:46:23.743Z,1015.7
2016-12-18T15:47:23.762Z,1015.7
2016-12-18T15:48:23.778Z,1015.72
2016-12-18T15:49:23.795Z,1015.74
2016-12-18T15:50:23.809Z,1015.72
2016-12-18T15:51:23.829Z,1015.76
2016-12-18T15:52:23.843Z,1015.73
2016-12-18T15:53:23.858Z,1015.74
2016-12-18T15:54:23.872Z,1015.75
2016-12-18T15:55:23.891Z,1015.79
2016-12-18T15:56:23.909Z,1015.75
2016-12-18T15:57:23.926Z,1015.69
2016-12-18T15:58:23.936Z,1015.68
2016-12-18T15:59:23.956Z,1015.65
2016-12-18T16:00:23.973Z,1015.65
2016-12-18T16:01:23.987Z,1015.67
2016-12-18T16:02:24.006Z,1015.67
2016-12-18T16:03:24.019Z,1015.71
2016-12-18T16:04:24.036Z,1015.68
2016-12-18T16:05:24.050Z,1015.69
2016-12-18T16:06:24.066Z,1015.71
2016-12-18T16:07:24.080Z,1015.73
2016-12-18T16:08:24.099Z,1015.74
2016-12-18T16:09:24.117Z,1015.75
2016-12-18T16:10:24.132Z,1015.78
2016-12-18T16:11:24.148Z,1015.7
2016-12-18T16:12:24.161Z,1015.71
2016-12-18T16:13:24.180Z,1015.71
2016-12-18T16:14:24.196Z,1015.75
2016-12-18T16:15:24.214Z,1015.79
2016-12-18T16:16:24.229Z,1015.78
2016-12-18T16:17:24.244Z,1015.81
2016-12-18T16:18:24.262Z,1015.86
2016-12-18T16:19:24.278Z,1015.87
2016-12-18T16:20:24.297Z,1015.88
2016-12-18T16:21:24.309Z,1015.88
2016-12-18T16:22:24.324Z,1015.81
2016-12-18T16:23:24.339Z,1015.82
2016-12-18T16:24:24.359Z,1015.78
2016-12-18T16:25:24.372Z,1015.77
2016-12-18T16:26:24.393Z,1015.78
2016-12-18T16:27:24.403Z,1015.81
2016-12-18T16:28:24.424Z,1015.8
2016-12-18T16:29:24.440Z,1015.77
2016-12-18T16:30:24.452Z,1015.77
2016-12-18T16:31:24.467Z,1015.73
2016-12-18T16:32:24.486Z,1015.74
2016-12-18T16:33:24.504Z,1015.78
2016-12-18T16:34:24.520Z,1015.74
2016-12-18T16:35:24.531Z,1015.72
2016-12-18T16:36:24.547Z,1015.67
2016-12-18T16:37:24.567Z,1015.73
2016-12-18T16:38:24.584Z,1015.72
2016-12-18T16:39:24.596Z,1015.68
2016-12-18T16:40:24.613Z,1015.69
2016-12-18T16:41:24.627Z,1015.66
2016-12-18T16:42:24.646Z,1015.69
2016-12-18T16:43:24.665Z,1015.69
2016-12-18T16:44:24.678Z,1015.7
2016-12-18T16:45:24.694Z,1015.75
2016-12-18T16:46:24.709Z,1015.68
2016-12-18T16:47:24.726Z,1015.67
2016-12-18T16:48:24.742Z,1015.72
2016-12-18T16:49:24.760Z,1015.71
2016-12-18T16:50:24.773Z,1015.73
2016-12-18T16:51:24.793Z,1015.69
2016-12-18T16:52:24.805Z,1015.68
2016-12-18T16:53:24.820Z,1015.65
2016-12-18T16:54:24.840Z,1015.61
2016-12-18T16:55:24.853Z,1015.6
2016-12-18T16:56:24.870Z,1015.55
2016-12-18T16:57:24.883Z,1015.55
2016-12-18T16:58:24.902Z,1015.56
2016-12-18T16:59:24.921Z,1015.6
2016-12-18T17:00:24.937Z,1015.63
2016-12-18T17:01:24.946Z,1015.58
2016-12-18T17:02:24.966Z,1015.64
2016-12-18T17:03:24.981Z,1015.65
2016-12-18T17:04:25.003Z,1015.63
2016-12-18T17:05:25.013Z,1015.61
2016-12-18T17:06:25.030Z,1015.6
2016-12-18T17:07:25.045Z,1015.62
2016-12-18T17:08:25.063Z,1015.64
2016-12-18T17:09:25.073Z,1015.63
2016-12-18T17:10:25.091Z,1015.62
2016-12-18T17:11:25.111Z,1015.54
2016-12-18T17:12:25.125Z,1015.58
2016-12-18T17:13:25.145Z,1015.64
2016-12-18T17:14:25.158Z,1015.62
2016-12-18T17:15:25.173Z,1015.64
2016-12-18T17:16:25.188Z,1015.6
2016-12-18T17:17:25.205Z,1015.55
2016-12-18T17:18:25.218Z,1015.52
2016-12-18T17:19:25.234Z,1015.52
2016-12-18T17:20:25.252Z,1015.53
2016-12-18T17:21:25.270Z,1015.55
2016-12-18T17:22:25.284Z,1015.57
2016-12-18T17:23:25.300Z,1015.57
2016-12-18T17:24:25.320Z,1015.59
2016-12-18T17:25:25.332Z,1015.57
2016-12-18T17:26:25.347Z,1015.61
2016-12-18T17:27:25.366Z,1015.63
2016-12-18T17:28:25.380Z,1015.65
2016-12-18T17:29:25.397Z,1015.64
2016-12-18T17:30:25.414Z,1015.68
2016-12-18T17:31:25.427Z,1015.66
2016-12-18T17:32:25.447Z,1015.61
2016-12-18T17:33:25.460Z,1015.66
2016-12-18T17:34:25.474Z,1015.67
2016-12-18T17:35:25.492Z,1015.61
2016-12-18T17:36:25.508Z,1015.64
2016-12-18T17:37:25.527Z,1015.67
2016-12-18T17:38:25.537Z,1015.63
2016-12-18T17:39:25.555Z,1015.63
2016-12-18T17:40:25.571Z,1015.6
2016-12-18T17:41:25.585Z,1015.6
2016-12-18T17:42:25.605Z,1015.63
2016-12-18T17:43:25.622Z,1015.62
2016-12-18T17:44:25.636Z,1015.61
2016-12-18T17:45:25.648Z,1015.63
2016-12-18T17:46:25.669Z,1015.6
2016-12-18T17:47:25.686Z,1015.63
2016-12-18T17:48:25.702Z,1015.59
2016-12-18T17:49:25.719Z,1015.63
2016-12-18T17:50:25.732Z,1015.56
2016-12-18T17:51:25.747Z,1015.62
2016-12-18T17:52:25.763Z,1015.55
2016-12-18T17:53:25.780Z,1015.58
2016-12-18T17:54:25.798Z,1015.56
2016-12-18T17:55:25.812Z,1015.56
2016-12-18T17:56:25.830Z,1015.5
2016-12-18T17:57:25.843Z,1015.53
2016-12-18T17:58:25.858Z,1015.51
2016-12-18T17:59:25.878Z,1015.47
2016-12-18T18:00:25.894Z,1015.5
2016-12-18T18:01:25.907Z,1015.47
2016-12-18T18:02:25.922Z,1015.52
2016-12-18T18:03:25.938Z,1015.54
2016-12-18T18:04:25.954Z,1015.53
2016-12-18T18:05:25.967Z,1015.46
2016-12-18T18:06:25.984Z,1015.48
2016-12-18T18:07:26.002Z,1015.46
2016-12-18T18:08:26.019Z,1015.45
2016-12-18T18:09:26.038Z,1015.42
2016-12-18T18:10:26.048Z,1015.39
2016-12-18T18:11:26.068Z,1015.41
2016-12-18T18:12:26.086Z,1015.43
2016-12-18T18:13:26.098Z,1015.4
2016-12-18T18:14:26.111Z,1015.38
2016-12-18T18:15:26.131Z,1015.31
2016-12-18T18:16:26.144Z,1015.33
2016-12-18T18:17:26.162Z,1015.35
2016-12-18T18:18:26.180Z,1015.31
2016-12-18T18:19:26.195Z,1015.29
2016-12-18T18:20:26.209Z,1015.34
2016-12-18T18:21:26.223Z,1015.38
2016-12-18T18:22:26.243Z,1015.36
2016-12-18T18:23:26.255Z,1015.35
2016-12-18T18:24:26.273Z,1015.35
2016-12-18T18:25:26.289Z,1015.37
2016-12-18T18:26:26.303Z,1015.36
2016-12-18T18:27:26.316Z,1015.37
2016-12-18T18:28:26.333Z,1015.35
2016-12-18T18:29:26.350Z,1015.36
2016-12-18T18:30:26.371Z,1015.39
2016-12-18T18:31:26.384Z,1015.39
2016-12-18T18:32:26.398Z,1015.39
2016-12-18T18:33:26.412Z,1015.4
2016-12-18T18:34:26.431Z,1015.37
2016-12-18T18:35:26.447Z,1015.31
2016-12-18T18:36:26.464Z,1015.27
2016-12-18T18:37:26.480Z,1015.32
2016-12-18T18:38:26.496Z,1015.31
2016-12-18T18:39:26.511Z,1015.3
2016-12-18T18:40:26.532Z,1015.35
2016-12-18T18:41:26.556Z,1015.36
2016-12-18T18:42:26.555Z,1015.35
2016-12-18T18:43:26.571Z,1015.34
2016-12-18T18:44:26.588Z,1015.33
2016-12-18T18:45:26.605Z,1015.35
2016-12-18T18:46:26.623Z,1015.29
2016-12-18T18:47:26.639Z,1015.34
2016-12-18T18:48:26.653Z,1015.32
2016-12-18T18:49:26.671Z,1015.31
2016-12-18T18:50:26.685Z,1015.3
2016-12-18T18:51:26.699Z,1015.32
2016-12-18T18:52:26.715Z,1015.37
2016-12-18T18:53:26.729Z,1015.33
2016-12-18T18:54:26.747Z,1015.37
2016-12-18T18:55:26.763Z,1015.38
2016-12-18T18:56:26.775Z,1015.34
2016-12-18T18:57:26.795Z,1015.38
2016-12-18T18:58:26.813Z,1015.36
2016-12-18T18:59:26.827Z,1015.41
2016-12-18T19:00:26.846Z,1015.35
2016-12-18T19:01:26.856Z,1015.36
2016-12-18T19:02:26.875Z,1015.4
2016-12-18T19:03:26.894Z,1015.41
2016-12-18T19:04:26.906Z,1015.41
2016-12-18T19:05:26.920Z,1015.44
2016-12-18T19:06:26.942Z,1015.4
2016-12-18T19:07:26.953Z,1015.44
2016-12-18T19:08:26.970Z,1015.43
2016-12-18T19:09:26.986Z,1015.45
2016-12-18T19:10:26.997Z,1015.48
2016-12-18T19:11:27.017Z,1015.46
2016-12-18T19:12:27.034Z,1015.42
2016-12-18T19:13:27.050Z,1015.44
2016-12-18T19:14:27.063Z,1015.45
2016-12-18T19:15:27.080Z,1015.47
2016-12-18T19:16:27.095Z,1015.45
2016-12-18T19:17:27.111Z,1015.43
2016-12-18T19:18:27.125Z,1015.43
2016-12-18T19:19:27.142Z,1015.46
2016-12-18T19:20:27.161Z,1015.49
2016-12-18T19:21:27.172Z,1015.45
2016-12-18T19:22:27.187Z,1015.5
2016-12-18T19:23:27.208Z,1015.51
2016-12-18T19:24:27.221Z,1015.47
2016-12-18T19:25:27.242Z,1015.47
2016-12-18T19:26:27.255Z,1015.47
2016-12-18T19:27:27.273Z,1015.46
2016-12-18T19:28:27.287Z,1015.43
2016-12-18T19:29:27.304Z,1015.41
2016-12-18T19:30:27.325Z,1015.37
2016-12-18T19:31:27.333Z,1015.4
2016-12-18T19:32:27.354Z,1015.39
2016-12-18T19:33:27.365Z,1015.38
2016-12-18T19:34:27.382Z,1015.4
2016-12-18T19:35:27.395Z,1015.42
2016-12-18T19:36:27.413Z,1015.38
2016-12-18T19:37:27.452Z,1015.42
2016-12-18T19:38:27.477Z,1015.4
2016-12-18T19:39:27.511Z,1015.38
2016-12-18T19:40:27.476Z,1015.37
2016-12-18T19:41:27.534Z,1015.37
2016-12-18T19:42:27.545Z,1015.34
2016-12-18T19:43:27.573Z,1015.36
2016-12-18T19:44:27.589Z,1015.33
2016-12-18T19:45:27.647Z,1015.33
2016-12-18T19:46:27.605Z,1015.34
2016-12-18T19:47:27.603Z,1015.35
2016-12-18T19:48:27.608Z,1015.34
2016-12-18T19:49:27.617Z,1015.35
2016-12-18T19:50:27.676Z,1015.37
2016-12-18T19:51:27.647Z,1015.36
2016-12-18T19:52:27.666Z,1015.35
2016-12-18T19:53:27.740Z,1015.35
2016-12-18T19:54:27.697Z,1015.34
2016-12-18T19:55:27.713Z,1015.37
2016-12-18T19:56:27.724Z,1015.39
2016-12-18T19:57:27.741Z,1015.4
2016-12-18T19:58:27.761Z,1015.38
2016-12-18T19:59:27.777Z,1015.38
2016-12-18T20:00:27.789Z,1015.38
2016-12-18T20:01:27.807Z,1015.37
2016-12-18T20:02:27.881Z,1015.37
2016-12-18T20:03:27.838Z,1015.39
2016-12-18T20:04:27.852Z,1015.36
2016-12-18T20:05:27.870Z,1015.39
2016-12-18T20:06:27.951Z,1015.34
2016-12-18T20:07:27.912Z,1015.37
2016-12-18T20:08:27.987Z,1015.39
2016-12-18T20:09:27.995Z,1015.4
2016-12-18T20:10:27.950Z,1015.36
2016-12-18T20:11:28.017Z,1015.4
2016-12-18T20:12:28.010Z,1015.39
2016-12-18T20:13:28.042Z,1015.46
2016-12-18T20:14:28.012Z,1015.41
2016-12-18T20:15:28.026Z,1015.4
2016-12-18T20:16:28.098Z,1015.34
2016-12-18T20:17:28.058Z,1015.33
2016-12-18T20:18:28.130Z,1015.28
2016-12-18T20:19:28.133Z,1015.31
2016-12-18T20:20:28.106Z,1015.25
2016-12-18T20:21:28.169Z,1015.26
2016-12-18T20:22:28.137Z,1015.27
2016-12-18T20:23:28.153Z,1015.29
2016-12-18T20:24:28.169Z,1015.34
2016-12-18T20:25:28.183Z,1015.35
2016-12-18T20:26:28.202Z,1015.38
2016-12-18T20:27:28.217Z,1015.4
2016-12-18T20:28:28.229Z,1015.44
2016-12-18T20:29:28.247Z,1015.41
2016-12-18T20:30:28.266Z,1015.37
2016-12-18T20:31:28.277Z,1015.38
2016-12-18T20:32:28.294Z,1015.38
2016-12-18T20:33:28.313Z,1015.4
2016-12-18T20:34:28.367Z,1015.36
2016-12-18T20:35:28.344Z,1015.41
2016-12-18T20:36:28.360Z,1015.36
2016-12-18T20:37:28.421Z,1015.43
2016-12-18T20:38:28.391Z,1015.43
2016-12-18T20:39:28.404Z,1015.39
2016-12-18T20:40:28.457Z,1015.38
2016-12-18T20:41:28.437Z,1015.35
2016-12-18T20:42:28.452Z,1015.32
2016-12-18T20:43:28.505Z,1015.38
2016-12-18T20:44:28.515Z,1015.36
2016-12-18T20:45:28.498Z,1015.35
2016-12-18T20:46:28.518Z,1015.36
2016-12-18T20:47:28.585Z,1015.33
2016-12-18T20:48:28.588Z,1015.36
2016-12-18T20:49:28.590Z,1015.33
2016-12-18T20:50:28.622Z,1015.27
2016-12-18T20:51:28.623Z,1015.29
2016-12-18T20:52:28.677Z,1015.27
2016-12-18T20:53:28.674Z,1015.27
2016-12-18T20:54:28.686Z,1015.31
2016-12-18T20:55:28.683Z,1015.3
2016-12-18T20:56:28.683Z,1015.3
2016-12-18T20:57:28.688Z,1015.32
2016-12-18T20:58:28.705Z,1015.31
2016-12-18T20:59:28.719Z,1015.32
2016-12-18T21:00:28.740Z,1015.3
2016-12-18T21:01:28.753Z,1015.27
2016-12-18T21:02:28.766Z,1015.29
2016-12-18T21:03:28.782Z,1015.28
2016-12-18T21:04:28.800Z,1015.28
2016-12-18T21:05:28.812Z,1015.25
2016-12-18T21:06:28.830Z,1015.25
2016-12-18T21:07:28.854Z,1015.27
2016-12-18T21:08:28.865Z,1015.26
2016-12-18T21:09:28.879Z,1015.2
2016-12-18T21:10:28.896Z,1015.26
2016-12-18T21:11:28.913Z,1015.26
2016-12-18T21:12:28.930Z,1015.26
2016-12-18T21:13:28.945Z,1015.23
2016-12-18T21:14:28.960Z,1015.18
2016-12-18T21:15:28.977Z,1015.16
2016-12-18T21:16:28.988Z,1015.17
2016-12-18T21:17:29.004Z,1015.17
2016-12-18T21:18:29.020Z,1015.2
2016-12-18T21:19:29.037Z,1015.2
2016-12-18T21:20:29.055Z,1015.16
2016-12-18T21:21:29.072Z,1015.15
2016-12-18T21:22:29.084Z,1015.16
2016-12-18T21:23:29.100Z,1015.17
2016-12-18T21:24:29.123Z,1015.14
2016-12-18T21:25:29.130Z,1015.1
2016-12-18T21:26:29.145Z,1015.12
2016-12-18T21:27:29.163Z,1015.11
2016-12-18T21:28:29.181Z,1015.17
2016-12-18T21:29:29.198Z,1015.17
2016-12-18T21:30:29.209Z,1015.17
2016-12-18T21:31:29.228Z,1015.15
2016-12-18T21:32:29.245Z,1015.12
2016-12-18T21:33:29.256Z,1015.17
2016-12-18T21:34:29.276Z,1015.14
2016-12-18T21:35:29.291Z,1015.17
2016-12-18T21:36:29.304Z,1015.17
2016-12-18T21:37:29.320Z,1015.15
2016-12-18T21:38:29.337Z,1015.14
2016-12-18T21:39:29.352Z,1015.1
2016-12-18T21:40:29.370Z,1015.09
2016-12-18T21:41:29.386Z,1015.13
2016-12-18T21:42:29.400Z,1015.09
2016-12-18T21:43:29.413Z,1015.09
2016-12-18T21:44:29.433Z,1015.12
2016-12-18T21:45:29.447Z,1015.12
2016-12-18T21:46:29.462Z,1015.09
2016-12-18T21:47:29.476Z,1015.05
2016-12-18T21:48:29.494Z,1015.05
2016-12-18T21:49:29.513Z,1015.06
2016-12-18T21:50:29.527Z,1015.09
2016-12-18T21:51:29.541Z,1015.09
2016-12-18T21:52:29.559Z,1015.09
2016-12-18T21:53:29.571Z,1015.1
2016-12-18T21:54:29.590Z,1015.07
2016-12-18T21:55:29.607Z,1015.05
2016-12-18T21:56:29.623Z,1015.08
2016-12-18T21:57:29.636Z,1015.04
2016-12-18T21:58:29.656Z,1015.08
2016-12-18T21:59:29.671Z,1015.05
2016-12-18T22:00:29.685Z,1015.05
2016-12-18T22:01:29.697Z,1015.04
2016-12-18T22:02:29.715Z,1015.09